Time;durP1;ratioP1;P1;durP2;ratioP2;P2;SDS_P1;SDS_P2;PMS_P1;PMS_P2;Temp;Humidity;BMP_temperature;BMP_pressure;BME280_temperature;BME280_humidity;BME280_pressure;Samples;Min_cycle;Max_cycle;Signal;HPM_P1;HPM_P2
2021/12/08 00:00:22;;;;;;;29.65;26.77;;;-1.20;89.30;-1.70;98349.00;;;;4960464;28;87222;-61
2021/12/08 00:02:49;;;;;;;27.67;25.02;;;-1.20;89.20;-1.70;98355.00;;;;4974666;28;88565;-61
2021/12/08 00:05:19;;;;;;;29.35;26.42;;;-1.20;89.40;-1.70;98363.00;;;;4980609;28;87650;-61
2021/12/08 00:07:46;;;;;;;28.58;25.65;;;-1.20;89.30;-1.70;98362.00;;;;4980448;28;88624;-61
2021/12/08 00:10:39;;;;;;;25.67;23.08;;;-1.20;89.40;-1.60;98367.00;;;;4980408;28;87195;-60
2021/12/08 00:13:07;;;;;;;28.40;25.70;;;-1.20;90.00;-1.60;98377.00;;;;4980740;28;87281;-63
2021/12/08 00:15:45;;;;;;;26.53;23.80;;;-1.20;88.90;-1.60;98376.00;;;;4979232;28;87276;-63
2021/12/08 00:18:16;;;;;;;25.88;23.38;;;-1.20;88.80;-1.70;98378.00;;;;4980254;28;88632;-61
2021/12/08 00:20:46;;;;;;;26.05;23.58;;;-1.20;88.80;-1.70;98370.00;;;;4981342;28;87502;-61
2021/12/08 00:23:15;;;;;;;25.35;22.80;;;-1.20;88.90;-1.70;98366.00;;;;4976391;28;87322;-61
2021/12/08 00:25:41;;;;;;;26.40;23.95;;;-1.30;88.50;-1.80;98357.00;;;;4960623;28;87019;-61
2021/12/08 00:28:08;;;;;;;22.05;19.85;;;-1.30;88.60;-1.80;98370.00;;;;4960366;28;88526;-60
2021/12/08 00:30:37;;;;;;;25.70;23.15;;;-1.30;88.60;-1.80;98379.00;;;;4960297;28;88361;-60
2021/12/08 00:33:06;;;;;;;26.42;23.92;;;-1.30;88.80;-1.90;98374.00;;;;4961123;28;86946;-61
2021/12/08 00:35:33;;;;;;;25.25;22.75;;;-1.40;88.70;-1.90;98379.00;;;;4960547;28;87211;-60
2021/12/08 00:38:00;;;;;;;27.67;25.00;;;-1.40;89.20;-1.90;98370.00;;;;4960393;28;88668;-60
2021/12/08 00:40:28;;;;;;;26.38;23.65;;;-1.40;88.60;-1.90;98374.00;;;;4960378;28;87528;-61
2021/12/08 00:42:55;;;;;;;24.33;21.83;;;-1.40;89.00;-1.90;98377.00;;;;4976030;28;87434;-60
2021/12/08 00:45:23;;;;;;;24.10;21.60;;;-1.40;88.60;-2.00;98375.00;;;;4960111;28;86279;-61
2021/12/08 00:47:51;;;;;;;24.85;22.30;;;-1.40;88.40;-2.00;98382.00;;;;4960596;28;87716;-61
2021/12/08 00:50:21;;;;;;;25.02;22.50;;;-1.50;88.20;-2.00;98380.00;;;;4959280;28;89524;-60
2021/12/08 00:52:49;;;;;;;25.88;23.38;;;-1.50;88.40;-2.10;98385.00;;;;4960138;28;88043;-61
2021/12/08 00:55:16;;;;;;;26.00;23.45;;;-1.50;88.50;-2.10;98399.00;;;;4960343;28;87044;-61
2021/12/08 00:57:42;;;;;;;25.25;22.85;;;-1.60;88.20;-2.10;98401.00;;;;4979839;28;87497;-61
2021/12/08 01:00:34;;;;;;;26.85;24.15;;;-1.60;88.20;-2.10;98403.00;;;;4979620;28;87473;-61
2021/12/08 01:03:00;;;;;;;26.30;23.67;;;-1.60;88.30;-2.10;98410.00;;;;4980541;28;86957;-61
2021/12/08 01:05:33;;;;;;;25.27;22.50;;;-1.60;88.40;-2.20;98424.00;;;;4995339;28;87127;-61
2021/12/08 01:07:59;;;;;;;22.25;19.95;;;-1.60;87.80;-2.20;98423.00;;;;4980020;28;87646;-60
2021/12/08 01:10:28;;;;;;;24.45;22.15;;;-1.70;87.80;-2.20;98436.00;;;;4980313;28;88488;-60
2021/12/08 01:12:55;;;;;;;22.92;20.63;;;-1.70;87.50;-2.30;98407.00;;;;4980027;28;86988;-61
2021/12/08 01:15:26;;;;;;;21.13;19.02;;;-1.70;87.50;-2.40;98408.00;;;;4979726;28;87004;-60
2021/12/08 01:17:54;;;;;;;23.37;21.23;;;-1.80;87.20;-2.40;98410.00;;;;4976574;28;88992;-63
2021/12/08 01:20:22;;;;;;;24.30;21.80;;;-1.80;87.10;-2.40;98405.00;;;;4982734;28;88242;-61
2021/12/08 01:22:48;;;;;;;21.90;19.70;;;-1.80;87.30;-2.40;98417.00;;;;4977114;28;87228;-61
2021/12/08 01:25:16;;;;;;;23.63;21.25;;;-1.80;87.50;-2.40;98412.00;;;;4983094;28;87187;-61
2021/12/08 01:27:43;;;;;;;23.00;20.80;;;-1.80;87.50;-2.40;98415.00;;;;4982656;28;88714;-60
2021/12/08 01:30:11;;;;;;;24.20;21.98;;;-1.80;87.50;-2.40;98413.00;;;;4982547;28;88512;-61
2021/12/08 01:32:37;;;;;;;24.08;21.77;;;-1.80;87.30;-2.40;98411.00;;;;4982985;28;86851;-61
2021/12/08 01:35:06;;;;;;;22.50;20.33;;;-1.80;88.00;-2.30;98420.00;;;;4983224;28;86939;-61
2021/12/08 01:37:34;;;;;;;23.35;20.95;;;-1.80;86.50;-2.30;98420.00;;;;4982483;28;88723;-61
2021/12/08 01:40:01;;;;;;;25.13;22.70;;;-1.90;86.40;-2.40;98428.00;;;;4982848;28;87268;-61
2021/12/08 01:42:35;;;;;;;25.52;23.02;;;-1.90;86.40;-2.50;98427.00;;;;4979881;28;88146;-61
2021/12/08 01:47:49;;;;;;;25.40;22.90;;;-2.00;86.40;-2.50;98403.00;;;;4962072;28;88793;-61
2021/12/08 01:50:15;;;;;;;25.85;23.35;;;-2.00;86.30;-2.60;98411.00;;;;4961779;28;87713;-60
2021/12/08 01:52:41;;;;;;;25.80;23.30;;;-2.00;86.30;-2.60;98412.00;;;;4963146;28;86949;-61
2021/12/08 01:55:10;;;;;;;24.02;21.52;;;-2.10;86.20;-2.60;98419.00;;;;4963337;28;87394;-61
2021/12/08 01:57:37;;;;;;;25.02;22.63;;;-2.10;86.20;-2.70;98428.00;;;;4962327;28;87529;-61
2021/12/08 02:00:15;;;;;;;26.52;24.02;;;-2.20;86.10;-2.70;98423.00;;;;4963282;28;87476;-61
2021/12/08 02:02:42;;;;;;;26.25;23.63;;;-2.20;86.10;-2.70;98430.00;;;;4962894;28;87112;-61
2021/12/08 02:05:09;;;;;;;26.52;23.92;;;-2.20;86.10;-2.80;98438.00;;;;4978024;28;87089;-61
2021/12/08 02:07:35;;;;;;;24.73;22.33;;;-2.20;86.00;-2.80;98427.00;;;;4977279;28;89202;-61
2021/12/08 02:10:04;;;;;;;25.60;23.05;;;-2.30;86.00;-2.80;98426.00;;;;4962610;28;88407;-61
2021/12/08 02:12:33;;;;;;;25.88;23.38;;;-2.30;86.00;-2.80;98446.00;;;;4963028;28;86955;-60
2021/12/08 02:14:59;;;;;;;25.67;23.13;;;-2.30;85.60;-2.90;98450.00;;;;4978029;28;87029;-60
2021/12/08 02:17:26;;;;;;;26.30;23.65;;;-2.30;85.80;-2.90;98436.00;;;;4980239;28;87644;-60
2021/12/08 02:19:53;;;;;;;28.45;25.65;;;-2.30;86.00;-3.00;98441.00;;;;4982043;28;87415;-59
2021/12/08 02:22:19;;;;;;;28.00;25.17;;;-2.40;85.90;-3.00;98456.00;;;;4997352;28;87885;-60
2021/12/08 02:24:45;;;;;;;27.33;24.65;;;-2.40;85.90;-3.00;98450.00;;;;4965392;28;86654;-61
2021/12/08 02:27:11;;;;;;;27.25;24.55;;;-2.50;85.90;-3.00;98451.00;;;;4962202;28;87517;-61
2021/12/08 02:29:45;;;;;;;25.95;23.25;;;-2.40;86.00;-3.00;98456.00;;;;4962370;28;88821;-61
2021/12/08 02:46:42;;;;;;;26.73;23.92;;;-2.40;85.90;-3.00;98457.00;;;;4961839;28;88225;-61
2021/12/08 02:48:41;;;;;;;28.73;25.70;;;-2.50;85.90;-3.10;98462.00;;;;4961639;28;88786;-61
2021/12/08 02:51:07;;;;;;;30.88;27.75;;;-2.50;85.80;-3.10;98464.00;;;;4962636;28;86411;-60
2021/12/08 02:53:34;;;;;;;30.65;27.55;;;-2.50;85.80;-3.10;98458.00;;;;4961986;28;86939;-61
2021/12/08 02:56:00;;;;;;;32.65;29.40;;;-2.60;85.80;-3.20;98462.00;;;;4968804;28;86862;-60
2021/12/08 02:58:26;;;;;;;30.92;27.75;;;-2.60;87.20;-3.10;98474.00;;;;4978636;28;89634;-60
2021/12/08 03:01:02;;;;;;;31.27;28.08;;;-2.60;86.50;-3.10;98477.00;;;;4962065;28;88263;-60
2021/12/08 03:03:28;;;;;;;31.45;28.25;;;-2.60;86.60;-3.10;98478.00;;;;4961743;28;86945;-61
2021/12/08 03:05:54;;;;;;;30.45;27.33;;;-2.60;86.60;-3.10;98474.00;;;;4962235;28;87083;-61
2021/12/08 03:08:20;;;;;;;30.33;27.38;;;-2.50;86.40;-3.10;98475.00;;;;4961317;28;87480;-59
2021/12/08 03:10:51;;;;;;;32.90;29.50;;;-2.50;86.50;-3.10;98489.00;;;;4977046;28;90130;-62
2021/12/08 03:13:18;;;;;;;32.25;28.88;;;-2.60;85.70;-3.20;98486.00;;;;4961740;28;87154;-62
2021/12/08 03:15:46;;;;;;;31.33;28.00;;;-2.60;85.80;-3.20;98488.00;;;;4961563;28;86325;-64
2021/12/08 03:18:12;;;;;;;31.40;28.25;;;-2.70;85.70;-3.30;98483.00;;;;4961121;28;88632;-61
2021/12/08 03:20:43;;;;;;;31.42;28.08;;;-2.70;85.60;-3.30;98486.00;;;;4961611;28;88792;-61
2021/12/08 03:23:17;;;;;;;31.33;28.15;;;-2.80;85.60;-3.40;98482.00;;;;4967237;28;87742;-61
2021/12/08 03:25:54;;;;;;;31.38;28.17;;;-2.80;85.80;-3.50;98479.00;;;;4960339;28;86922;-61
2021/12/08 03:28:25;;;;;;;30.90;27.70;;;-2.90;86.10;-3.50;98492.00;;;;4961557;28;88659;-61
2021/12/08 03:31:06;;;;;;;31.30;28.10;;;-2.90;86.20;-3.50;98493.00;;;;4961398;28;87282;-61
2021/12/08 03:33:33;;;;;;;31.75;28.42;;;-2.90;86.40;-3.50;98496.00;;;;4961523;28;86961;-61
2021/12/08 03:35:59;;;;;;;31.50;28.10;;;-2.90;86.40;-3.60;98500.00;;;;4961052;28;86925;-61
2021/12/08 03:38:26;;;;;;;31.60;28.35;;;-3.00;86.40;-3.60;98495.00;;;;4976044;28;87762;-64
2021/12/08 03:40:56;;;;;;;31.92;28.63;;;-3.00;86.40;-3.60;98497.00;;;;4960740;28;86482;-60
2021/12/08 03:43:22;;;;;;;29.23;26.20;;;-3.00;86.30;-3.50;98508.00;;;;4961114;28;87005;-61
2021/12/08 03:45:51;;;;;;;27.52;24.75;;;-3.00;85.30;-3.60;98509.00;;;;4960287;28;87046;-62
2021/12/08 03:48:31;;;;;;;27.20;24.55;;;-3.00;85.30;-3.70;98512.00;;;;4959972;28;89472;-62
2021/12/08 03:50:58;;;;;;;28.95;26.05;;;-3.10;85.10;-3.80;98513.00;;;;4961229;28;87227;-61
2021/12/08 03:53:25;;;;;;;29.85;26.83;;;-3.20;85.10;-3.90;98521.00;;;;4961143;28;87453;-61
2021/12/08 03:55:53;;;;;;;32.40;29.17;;;-3.30;85.00;-3.90;98516.00;;;;4965196;28;87067;-62
2021/12/08 03:58:21;;;;;;;31.67;28.40;;;-3.30;85.80;-3.90;98516.00;;;;4980354;28;88684;-62
2021/12/08 04:00:49;;;;;;;30.42;27.20;;;-3.30;86.90;-3.90;98524.00;;;;4980240;28;86966;-62
2021/12/08 04:03:17;;;;;;;31.38;28.38;;;-3.30;86.40;-3.90;98531.00;;;;4980315;28;86851;-60
2021/12/08 04:05:54;;;;;;;31.50;28.30;;;-3.30;86.10;-3.90;98524.00;;;;4980481;28;86365;-61
2021/12/08 04:08:52;;;;;;;26.98;24.02;;;-3.30;86.10;-3.90;98529.00;;;;4980420;28;87554;-62
2021/12/08 04:11:14;;;;;;;29.83;26.70;;;-3.30;85.70;-4.00;98538.00;;;;4979703;28;87598;-61
2021/12/08 04:13:51;;;;;;;31.50;28.10;;;-3.40;85.90;-4.10;98530.00;;;;4980057;28;88760;-62
2021/12/08 04:16:24;;;;;;;35.25;31.65;;;-3.40;85.90;-4.10;98534.00;;;;4980512;28;86963;-61
2021/12/08 04:18:51;;;;;;;35.47;31.88;;;-3.50;86.10;-4.20;98550.00;;;;4979702;28;87127;-61
2021/12/08 04:21:19;;;;;;;37.25;33.40;;;-3.60;86.40;-4.20;98551.00;;;;4980068;28;87380;-63
2021/12/08 04:23:46;;;;;;;35.42;32.03;;;-3.60;86.60;-4.20;98546.00;;;;4989165;28;87043;-61
2021/12/08 04:26:32;;;;;;;37.17;33.42;;;-3.60;86.60;-4.20;98558.00;;;;4979856;28;87210;-61
2021/12/08 04:28:58;;;;;;;37.72;33.80;;;-3.60;86.40;-4.20;98552.00;;;;4980051;28;88678;-60
2021/12/08 04:31:31;;;;;;;41.55;37.38;;;-3.60;86.80;-4.20;98551.00;;;;4979213;28;87442;-60
2021/12/08 04:34:02;;;;;;;39.10;35.13;;;-3.60;86.80;-4.20;98565.00;;;;4980135;28;87026;-55
2021/12/08 04:36:42;;;;;;;39.88;35.88;;;-3.60;86.70;-4.20;98565.00;;;;4978671;28;87410;-60
2021/12/08 04:39:21;;;;;;;41.25;37.08;;;-3.60;86.70;-4.20;98567.00;;;;4978981;28;89532;-59
2021/12/08 04:41:54;;;;;;;41.60;37.45;;;-3.60;86.80;-4.20;98552.00;;;;4995265;28;91027;-61
2021/12/08 04:44:31;;;;;;;44.20;39.50;;;-3.60;86.90;-4.20;98551.00;;;;4979966;28;87296;-62
2021/12/08 05:04:25;;;;;;;43.05;38.60;;;-3.70;87.30;-4.30;98587.00;;;;4982788;28;88554;-59
2021/12/08 05:06:50;;;;;;;39.50;35.35;;;-3.70;87.60;-4.20;98606.00;;;;4983324;28;88208;-59
2021/12/08 05:09:33;;;;;;;38.00;33.97;;;-3.60;88.00;-4.20;98597.00;;;;4982139;28;87289;-59
2021/12/08 05:12:11;;;;;;;39.53;35.22;;;-3.60;87.70;-4.10;98587.00;;;;4982662;28;87938;-58
2021/12/08 05:14:45;;;;;;;39.10;34.97;;;-3.60;87.30;-4.20;98600.00;;;;4982119;28;87014;-58
2021/12/08 05:17:19;;;;;;;36.83;32.92;;;-3.60;86.80;-4.20;98591.00;;;;4964635;28;87474;-60
2021/12/08 05:19:52;;;;;;;37.60;33.60;;;-3.60;86.90;-4.20;98602.00;;;;4961186;28;87011;-60
2021/12/08 05:22:29;;;;;;;36.15;32.35;;;-3.60;86.80;-4.20;98608.00;;;;4963235;28;87225;-61
2021/12/08 05:24:58;;;;;;;34.88;31.17;;;-3.60;86.60;-4.20;98601.00;;;;4962942;28;88431;-59
2021/12/08 05:27:29;;;;;;;36.60;31.67;;;-3.60;86.50;-4.20;98607.00;;;;4961510;28;86939;-60
2021/12/08 05:30:12;;;;;;;35.58;31.60;;;-3.60;86.40;-4.30;98608.00;;;;4963109;28;87015;-59
2021/12/08 05:32:39;;;;;;;36.03;31.27;;;-3.60;86.40;-4.30;98613.00;;;;4972993;28;88694;-61
2021/12/08 05:35:10;;;;;;;36.78;32.75;;;-3.70;86.40;-4.30;98623.00;;;;4977852;28;88687;-56
2021/12/08 05:37:38;;;;;;;36.63;32.73;;;-3.70;87.20;-4.40;98637.00;;;;4961698;28;87073;-59
2021/12/08 05:40:10;;;;;;;36.42;32.55;;;-3.70;86.40;-4.50;98632.00;;;;4963042;28;87394;-58
2021/12/08 05:42:36;;;;;;;37.17;30.90;;;-3.80;86.20;-4.50;98640.00;;;;4977610;28;90707;-58
2021/12/08 05:45:10;;;;;;;32.75;27.40;;;-3.90;84.50;-4.50;98644.00;;;;4969787;28;87598;-60
2021/12/08 05:47:39;;;;;;;32.58;25.75;;;-3.90;83.60;-4.60;98625.00;;;;4962788;28;86894;-61
2021/12/08 05:50:07;;;;;;;32.58;27.05;;;-4.00;82.10;-4.70;98626.00;;;;4962469;28;86236;-57
2021/12/08 05:52:34;;;;;;;34.17;28.08;;;-4.00;81.80;-4.80;98619.00;;;;4962476;28;87401;-55
2021/12/08 05:55:01;;;;;;;34.53;28.50;;;-4.10;81.70;-4.80;98622.00;;;;4961187;28;87449;-58
2021/12/08 05:57:38;;;;;;;35.17;27.40;;;-4.10;81.80;-4.80;98649.00;;;;4979033;28;88020;-59
2021/12/08 06:00:26;;;;;;;34.10;28.27;;;-4.10;81.90;-4.90;98638.00;;;;4982337;28;87304;-59
2021/12/08 06:02:54;;;;;;;32.60;26.67;;;-4.20;81.50;-4.90;98652.00;;;;4980897;28;87493;-59
2021/12/08 06:05:21;;;;;;;30.92;25.27;;;-4.20;81.40;-4.90;98640.00;;;;4981292;28;87496;-56
2021/12/08 06:07:48;;;;;;;30.48;23.90;;;-4.20;80.90;-5.00;98655.00;;;;4980682;28;87104;-55
2021/12/08 06:10:36;;;;;;;32.50;24.40;;;-4.30;80.40;-5.20;98651.00;;;;4981987;28;87383;-61
2021/12/08 06:13:07;;;;;;;31.88;24.63;;;-4.50;80.00;-5.40;98658.00;;;;4981887;28;89059;-62
2021/12/08 06:15:34;;;;;;;28.52;22.27;;;-4.60;80.10;-5.50;98658.00;;;;4982027;28;86319;-62
2021/12/08 06:18:00;;;;;;;35.22;25.88;;;-4.70;80.30;-5.60;98663.00;;;;4982057;28;87195;-61
2021/12/08 06:20:27;;;;;;;31.50;23.30;;;-4.80;80.70;-5.70;98659.00;;;;4997079;28;87111;-61
2021/12/08 06:22:56;;;;;;;31.02;25.98;;;-4.90;80.60;-5.80;98687.00;;;;4974817;28;89610;-63
2021/12/08 06:25:26;;;;;;;35.00;25.73;;;-5.00;80.50;-5.90;98681.00;;;;4980479;28;88870;-60
2021/12/08 06:27:52;;;;;;;33.40;24.83;;;-5.10;80.60;-5.90;98679.00;;;;4980329;28;87035;-61
2021/12/08 06:30:25;;;;;;;33.88;26.73;;;-5.10;81.40;-5.90;98665.00;;;;4981319;28;87021;-61
2021/12/08 06:32:52;;;;;;;38.50;27.38;;;-5.20;81.70;-5.90;98663.00;;;;4981237;28;88587;-62
2021/12/08 06:35:36;;;;;;;33.35;25.88;;;-5.20;82.00;-5.90;98665.00;;;;4981225;28;87469;-62
2021/12/08 06:38:05;;;;;;;34.92;27.15;;;-5.20;82.20;-5.90;98692.00;;;;4980989;28;87069;-62
2021/12/08 06:40:54;;;;;;;33.35;25.00;;;-5.20;82.70;-5.90;98688.00;;;;4981778;28;86289;-61
2021/12/08 06:43:27;;;;;;;35.28;23.08;;;-5.20;82.60;-6.00;98689.00;;;;4981610;28;87700;-61
2021/12/08 06:45:57;;;;;;;36.97;29.67;;;-5.30;82.50;-6.10;98693.00;;;;4981140;28;87491;-62
2021/12/08 06:48:32;;;;;;;35.28;28.70;;;-5.40;82.80;-6.10;98697.00;;;;4980942;28;88343;-62
2021/12/08 06:51:11;;;;;;;36.38;28.75;;;-5.40;82.90;-6.10;98704.00;;;;4980985;28;87068;-61
2021/12/08 06:53:38;;;;;;;31.42;26.38;;;-5.40;83.60;-6.10;98694.00;;;;4981161;28;87684;-61
2021/12/08 06:56:15;;;;;;;38.63;29.25;;;-5.40;83.30;-6.20;98700.00;;;;4980190;28;88526;-62
2021/12/08 06:58:47;;;;;;;38.95;29.08;;;-5.40;83.40;-6.10;98718.00;;;;4981423;28;86936;-61
2021/12/08 07:07:11;;;;;;;37.40;27.05;;;-5.40;83.60;-6.10;98721.00;;;;4963522;28;90505;-61
2021/12/08 07:09:49;;;;;;;36.35;29.52;;;-5.40;83.10;-6.10;98725.00;;;;4980047;28;87436;-62
2021/12/08 07:12:32;;;;;;;37.75;28.70;;;-5.40;83.70;-6.20;98736.00;;;;4980948;28;87602;-63
2021/12/08 07:15:24;;;;;;;37.17;28.60;;;-5.40;84.10;-6.10;98724.00;;;;4980271;28;89956;-62
2021/12/08 07:17:57;;;;;;;36.92;29.70;;;-5.40;84.30;-6.10;98731.00;;;;4971158;28;88379;-61
2021/12/08 07:23:09;;;;;;;36.70;28.55;;;-5.30;84.10;-6.00;98749.00;;;;4967462;28;87072;-61
2021/12/08 07:25:35;;;;;;;38.72;31.50;;;-5.30;83.60;-6.10;98740.00;;;;4961048;28;87685;-60
2021/12/08 07:28:04;;;;;;;38.40;30.15;;;-5.40;83.90;-6.00;98721.00;;;;4963639;28;87861;-61
2021/12/08 07:30:48;;;;;;;40.92;30.95;;;-5.30;84.30;-6.00;98715.00;;;;4980475;28;87217;-62
2021/12/08 07:33:15;;;;;;;37.60;29.52;;;-5.30;83.90;-6.00;98733.00;;;;4981191;28;86942;-65
2021/12/08 07:35:51;;;;;;;39.28;29.13;;;-5.30;83.80;-6.00;98730.00;;;;4990220;28;88579;-62
2021/12/08 07:38:22;;;;;;;38.85;29.80;;;-5.30;83.60;-5.90;98722.00;;;;4961247;28;87369;-62
2021/12/08 07:41:06;;;;;;;38.63;29.23;;;-5.20;83.90;-5.90;98724.00;;;;4959612;28;88098;-61
2021/12/08 07:43:34;;;;;;;38.95;29.40;;;-5.20;83.70;-5.80;98743.00;;;;4960648;28;86948;-62
2021/12/08 07:46:09;;;;;;;35.58;26.80;;;-5.10;83.20;-5.80;98733.00;;;;4960391;28;88796;-61
2021/12/08 07:48:48;;;;;;;38.78;28.48;;;-5.10;83.20;-5.70;98740.00;;;;4959815;28;86976;-61
2021/12/08 07:51:46;;;;;;;37.08;28.33;;;-5.10;83.20;-5.70;98747.00;;;;4960102;28;87060;-61
2021/12/08 07:54:13;;;;;;;32.70;27.75;;;-5.00;83.30;-5.70;98741.00;;;;4960332;28;87064;-62
2021/12/08 07:56:43;;;;;;;38.97;27.95;;;-5.00;83.20;-5.70;98739.00;;;;4972165;28;88298;-63
2021/12/08 07:59:16;;;;;;;39.75;29.27;;;-4.90;83.40;-5.60;98745.00;;;;4980475;28;88372;-62
2021/12/08 08:01:50;;;;;;;39.33;29.77;;;-4.90;82.90;-5.60;98732.00;;;;4980363;28;87263;-61
2021/12/08 08:04:20;;;;;;;37.88;30.20;;;-4.90;82.90;-5.50;98738.00;;;;4980988;28;87113;-61
2021/12/08 08:06:51;;;;;;;37.83;30.08;;;-4.90;82.90;-5.50;98751.00;;;;4978622;28;88823;-62
2021/12/08 08:09:34;;;;;;;37.75;27.40;;;-4.90;82.60;-5.50;98758.00;;;;4980006;28;88213;-61
2021/12/08 08:12:06;;;;;;;36.05;28.80;;;-4.80;82.80;-5.50;98750.00;;;;4980736;28;86965;-62
2021/12/08 08:14:49;;;;;;;37.03;28.98;;;-4.90;82.50;-5.60;98758.00;;;;4980762;28;86906;-61
2021/12/08 08:17:19;;;;;;;35.92;27.27;;;-4.90;82.70;-5.60;98751.00;;;;4980012;28;89390;-62
2021/12/08 08:19:47;;;;;;;35.75;29.40;;;-4.90;82.90;-5.70;98766.00;;;;4980149;28;88673;-62
2021/12/08 08:22:26;;;;;;;37.47;28.85;;;-5.00;83.20;-5.60;98757.00;;;;4996709;28;87078;-62
2021/12/08 08:24:56;;;;;;;36.38;28.38;;;-4.90;83.40;-5.60;98754.00;;;;4966564;28;86232;-62
2021/12/08 08:27:25;;;;;;;37.45;28.10;;;-5.00;83.20;-5.60;98750.00;;;;4963654;28;87996;-62
2021/12/08 08:29:54;;;;;;;37.65;29.45;;;-4.90;83.30;-5.60;98766.00;;;;4964119;28;87457;-62
2021/12/08 08:32:31;;;;;;;36.40;31.02;;;-4.90;83.00;-5.60;98758.00;;;;4963354;28;87868;-60
2021/12/08 08:35:13;;;;;;;35.00;26.60;;;-4.90;83.00;-5.50;98762.00;;;;4963776;28;87285;-60
2021/12/08 08:37:41;;;;;;;36.58;28.27;;;-4.90;83.00;-5.50;98758.00;;;;4963915;28;87397;-59
2021/12/08 08:40:19;;;;;;;36.92;28.50;;;-4.80;83.00;-5.40;98761.00;;;;4962729;28;86998;-57
2021/12/08 08:42:50;;;;;;;39.38;30.20;;;-4.80;82.60;-5.50;98758.00;;;;4963427;28;87354;-55
2021/12/08 08:45:25;;;;;;;38.20;28.17;;;-4.80;82.20;-5.50;98764.00;;;;4980850;28;87611;-56
2021/12/08 08:48:01;;;;;;;42.10;29.42;;;-4.90;82.20;-5.50;98752.00;;;;4983491;28;87067;-55
2021/12/08 08:51:07;;;;;;;37.92;30.35;;;-4.90;82.20;-5.60;98758.00;;;;4983440;28;86379;-54
2021/12/08 08:53:38;;;;;;;35.67;28.60;;;-4.90;82.00;-5.50;98746.00;;;;4982705;28;87128;-55
2021/12/08 08:56:11;;;;;;;37.00;28.50;;;-4.80;82.30;-5.40;98751.00;;;;4974794;28;87649;-58
2021/12/08 08:58:43;;;;;;;36.22;27.02;;;-4.80;82.10;-5.40;98747.00;;;;4962943;28;88586;-57
2021/12/08 09:01:21;;;;;;;35.60;28.52;;;-4.80;81.90;-5.40;98752.00;;;;4962455;28;89455;-56
2021/12/08 09:03:54;;;;;;;36.78;28.77;;;-4.80;81.90;-5.50;98754.00;;;;4963349;28;87043;-55
2021/12/08 09:06:27;;;;;;;41.10;28.95;;;-4.80;81.80;-5.50;98754.00;;;;4963520;28;87331;-57
2021/12/08 09:08:54;;;;;;;35.10;26.38;;;-4.80;83.10;-5.50;98764.00;;;;4963150;28;87583;-58
2021/12/08 09:11:24;;;;;;;32.75;27.02;;;-4.80;82.10;-5.50;98766.00;;;;4965238;28;87375;-57
2021/12/08 09:14:00;;;;;;;31.55;26.92;;;-4.80;82.10;-5.50;98765.00;;;;4976530;28;87267;-55
2021/12/08 09:16:46;;;;;;;30.48;23.42;;;-4.80;82.20;-5.50;98766.00;;;;4980423;28;86793;-55
2021/12/08 09:19:22;;;;;;;29.63;23.80;;;-4.80;82.00;-5.50;98761.00;;;;4973206;28;88140;-56
2021/12/08 09:22:01;;;;;;;29.20;22.02;;;-4.80;82.10;-5.50;98765.00;;;;4973506;28;87350;-53
2021/12/08 09:24:44;;;;;;;30.85;23.70;;;-4.80;81.60;-5.60;98756.00;;;;4967421;28;88241;-55
2021/12/08 09:27:13;;;;;;;25.77;21.65;;;-4.90;81.10;-5.70;98752.00;;;;4985577;28;87408;-54
2021/12/08 09:29:49;;;;;;;28.20;21.73;;;-5.00;81.20;-5.70;98741.00;;;;4971648;28;87627;-57
2021/12/08 09:32:24;;;;;;;29.15;24.38;;;-5.00;81.40;-5.80;98752.00;;;;4986891;28;88216;-57
2021/12/08 09:34:59;;;;;;;29.67;23.67;;;-5.10;81.50;-5.60;98734.00;;;;4972940;28;87331;-57
2021/12/08 09:37:33;;;;;;;28.00;23.88;;;-5.00;81.80;-5.60;98742.00;;;;4970415;28;87241;-56
2021/12/08 09:40:13;;;;;;;28.95;23.83;;;-5.00;81.00;-5.50;98747.00;;;;4971922;28;87567;-57
2021/12/08 09:42:51;;;;;;;29.75;23.23;;;-4.90;81.00;-5.50;98747.00;;;;4972046;28;87320;-57
2021/12/08 09:45:36;;;;;;;27.88;23.23;;;-4.90;80.50;-5.60;98744.00;;;;4972061;28;87176;-57
2021/12/08 09:48:08;;;;;;;28.95;23.60;;;-4.90;80.40;-5.50;98743.00;;;;4970797;28;87302;-56
2021/12/08 09:50:36;;;;;;;28.60;23.35;;;-4.90;80.30;-5.50;98741.00;;;;4961182;28;89961;-58
2021/12/08 09:53:03;;;;;;;27.70;22.30;;;-4.90;80.50;-5.50;98748.00;;;;4962705;28;89373;-56
2021/12/08 09:55:29;;;;;;;29.13;23.60;;;-4.90;80.60;-5.50;98744.00;;;;4964892;28;86874;-55
2021/12/08 09:57:56;;;;;;;26.75;22.42;;;-4.90;80.50;-5.50;98743.00;;;;4981890;28;87027;-55
2021/12/08 10:00:33;;;;;;;33.28;23.67;;;-4.90;80.60;-5.60;98754.00;;;;4981437;28;87360;-56
2021/12/08 10:03:00;;;;;;;28.27;22.83;;;-4.90;80.70;-5.60;98756.00;;;;4982378;28;87742;-57
2021/12/08 10:05:32;;;;;;;28.05;23.33;;;-5.00;81.20;-5.70;98755.00;;;;4981632;28;87198;-58
2021/12/08 10:07:58;;;;;;;31.70;24.85;;;-5.00;81.50;-5.70;98762.00;;;;4978492;28;86315;-56
2021/12/08 10:10:25;;;;;;;33.17;26.48;;;-5.00;81.70;-5.70;98767.00;;;;4980614;28;89715;-58
2021/12/08 10:12:52;;;;;;;32.90;24.73;;;-5.10;82.00;-5.80;98770.00;;;;4981447;28;87653;-56
2021/12/08 10:15:21;;;;;;;28.27;22.55;;;-5.10;81.90;-5.80;98767.00;;;;4981475;28;87815;-53
2021/12/08 10:17:49;;;;;;;31.80;22.80;;;-5.20;81.70;-5.90;98766.00;;;;4981756;28;86979;-60
2021/12/08 10:20:21;;;;;;;27.67;22.45;;;-5.20;81.90;-6.00;98758.00;;;;4981358;28;87543;-58
2021/12/08 10:23:19;;;;;;;28.55;22.92;;;-5.30;82.20;-6.00;98775.00;;;;4974765;28;87259;-60
2021/12/08 10:25:59;;;;;;;28.73;23.13;;;-5.30;81.90;-6.10;98762.00;;;;4980176;28;86903;-60
2021/12/08 10:28:50;;;;;;;30.20;23.23;;;-5.40;82.00;-6.10;98767.00;;;;4981199;28;87032;-58
2021/12/08 10:31:27;;;;;;;27.83;22.33;;;-5.40;82.50;-6.10;98772.00;;;;4996934;28;88333;-58
2021/12/08 10:36:58;;;;;;;31.83;23.58;;;-5.50;81.80;-6.20;98776.00;;;;4980753;28;86865;-58
2021/12/08 10:39:46;;;;;;;29.95;23.95;;;-5.50;81.40;-6.30;98774.00;;;;4981723;28;86988;-64
2021/12/08 10:42:29;;;;;;;33.33;24.75;;;-5.60;81.00;-6.30;98793.00;;;;4980977;28;88551;-58
2021/12/08 10:47:50;;;;;;;31.73;25.17;;;-5.60;81.40;-6.20;98781.00;;;;4978667;28;87024;-56
2021/12/08 10:56:24;;;;;;;29.23;22.48;;;-5.60;81.00;-6.20;98785.00;;;;4970357;28;88607;-57
2021/12/08 10:58:51;;;;;;;29.67;23.35;;;-5.50;81.10;-6.30;98785.00;;;;4961356;28;87405;-60
2021/12/08 11:01:23;;;;;;;32.90;26.63;;;-5.50;81.00;-6.40;98785.00;;;;4971149;28;86192;-62
2021/12/08 11:04:00;;;;;;;30.23;24.80;;;-5.60;81.10;-6.40;98785.00;;;;4981121;28;87544;-63
2021/12/08 11:06:33;;;;;;;32.92;24.38;;;-5.60;81.40;-6.40;98803.00;;;;4979944;28;88159;-63
2021/12/08 11:09:00;;;;;;;32.50;26.20;;;-5.70;80.90;-6.30;98803.00;;;;4979240;28;88043;-61
2021/12/08 11:11:32;;;;;;;33.67;25.63;;;-5.60;81.30;-6.40;98820.00;;;;4970290;28;87618;-62
2021/12/08 11:14:05;;;;;;;31.40;24.17;;;-5.70;81.10;-6.40;98804.00;;;;4960360;28;87484;-64
2021/12/08 11:16:36;;;;;;;31.98;24.35;;;-5.70;81.20;-6.40;98816.00;;;;4961344;28;87424;-61
2021/12/08 11:19:10;;;;;;;28.85;24.20;;;-5.70;81.10;-6.50;98813.00;;;;4960664;28;87268;-58
2021/12/08 11:21:50;;;;;;;31.48;26.48;;;-5.80;80.80;-6.60;98816.00;;;;4976119;28;87074;-64
2021/12/08 11:24:35;;;;;;;28.80;22.25;;;-5.90;80.70;-6.70;98805.00;;;;4967188;28;87723;-62
2021/12/08 11:27:07;;;;;;;29.38;22.08;;;-6.00;81.20;-6.70;98798.00;;;;4977980;28;86406;-62
2021/12/08 11:29:42;;;;;;;29.90;24.27;;;-6.00;81.40;-6.80;98800.00;;;;4975620;28;87270;-62
2021/12/08 11:32:12;;;;;;;29.77;22.50;;;-6.00;81.60;-6.80;98802.00;;;;4980529;28;86946;-61
2021/12/08 11:34:43;;;;;;;29.60;22.02;;;-6.00;82.10;-6.80;98807.00;;;;4979630;28;89610;-64
2021/12/08 11:37:16;;;;;;;30.15;23.58;;;-6.00;81.70;-6.80;98820.00;;;;4980346;28;88506;-62
2021/12/08 11:39:55;;;;;;;30.67;23.73;;;-6.10;81.40;-6.80;98807.00;;;;4980379;28;87003;-63
2021/12/08 11:42:25;;;;;;;28.15;22.52;;;-6.10;81.80;-6.80;98806.00;;;;4980549;28;86975;-61
2021/12/08 11:44:57;;;;;;;30.50;22.45;;;-6.10;81.90;-6.90;98814.00;;;;4966760;28;87506;-61
2021/12/08 11:47:36;;;;;;;28.50;21.88;;;-6.10;81.50;-6.90;98806.00;;;;4960095;28;88494;-62
2021/12/08 11:50:21;;;;;;;29.52;22.95;;;-6.10;81.70;-6.90;98806.00;;;;4960628;28;87370;-62
2021/12/08 11:52:53;;;;;;;29.77;24.23;;;-6.10;82.10;-6.90;98815.00;;;;4961203;28;86189;-63
2021/12/08 11:55:22;;;;;;;29.35;22.60;;;-6.20;82.10;-6.90;98800.00;;;;4961529;28;88711;-62